Terminal Aerodrome Forecast
Issued by NWS

Home | Current Version | Previous Version | Text Only | Print | Product List | Glossary On
Versions: 1 2 3 4 5 6 7 8 9 10 11 12 13 14 15 16 17 18 19 20 21 22 23 24 25 26 27 28 29
000
FTUS46 KMTR 281720
TAFSFO
TAF
KSFO 281720Z 2818/2924 29015G21KT P6SM SCT250
     FM282000 28018G26KT P6SM FEW250
     FM282200 27026G33KT P6SM FEW250
     FM290500 28013KT P6SM FEW250
     FM291200 29006KT P6SM SKC
     FM291700 35005KT P6SM SKC
     FM292100 28014KT P6SM SKC=

USA.gov is the U.S. government's official web portal to all federal, state and local government web resources and services.